Time;durP1;ratioP1;P1;durP2;ratioP2;P2;SDS_P1;SDS_P2;PMS_P1;PMS_P2;Temp;Humidity;BMP_temperature;BMP_pressure;BME280_temperature;BME280_humidity;BME280_pressure;Samples;Min_cycle;Max_cycle;Signal;HPM_P1;HPM_P2
2021/11/09 00:00:09;;;;;;;;;;;;;;;8.15;65.78;100580.52;1674985;86;20217;-69
2021/11/09 00:02:39;;;;;;;;;;;;;;;8.16;65.91;100586.30;1653397;86;20163;-68
2021/11/09 00:05:10;;;;;;;;;;;;;;;8.16;66.21;100584.09;1674990;86;20235;-69
2021/11/09 00:10:24;;;;;;;;;;;;;;;8.12;66.95;100596.39;1647682;87;20216;-67
2021/11/09 00:13:01;;;;;;;;;;;;;;;8.07;67.15;100598.80;1647820;87;20233;-67
2021/11/09 00:15:31;;;;;;;;;;;;;;;8.03;67.15;100587.91;1647709;86;20213;-68
2021/11/09 00:18:01;;;;;;;;;;;;;;;8.02;67.28;100599.84;1647716;87;20326;-67
2021/11/09 00:20:32;;;;;;;;;;;;;;;8.01;67.38;100598.14;1671127;86;20537;-68
2021/11/09 00:23:04;;;;;;;;;;;;;;;8.02;67.39;100602.06;1675070;86;20159;-68
2021/11/09 00:25:33;;;;;;;;;;;;;;;8.04;67.41;100600.52;1675116;85;20461;-66
2021/11/09 00:28:03;;;;;;;;;;;;;;;8.04;67.42;100599.16;1675183;85;20218;-67
2021/11/09 00:30:32;;;;;;;;;;;;;;;8.03;67.48;100598.30;1672542;86;20190;-67
2021/11/09 00:33:01;;;;;;;;;;;;;;;8.04;67.54;100596.42;1674932;86;20239;-67
2021/11/09 00:35:30;;;;;;;;;;;;;;;8.03;67.72;100599.67;1674969;86;20155;-68
2021/11/09 00:37:59;;;;;;;;;;;;;;;8.03;67.77;100600.19;1670781;86;20232;-69
2021/11/09 00:40:29;;;;;;;;;;;;;;;8.03;67.76;100592.00;1647572;86;20193;-69
2021/11/09 00:42:59;;;;;;;;;;;;;;;8.01;67.82;100607.18;1647723;87;20170;-69
2021/11/09 00:45:27;;;;;;;;;;;;;;;8.00;67.98;100600.02;1647719;87;20166;-68
2021/11/09 00:47:57;;;;;;;;;;;;;;;7.98;68.05;100609.41;1647714;86;21051;-69
2021/11/09 00:50:27;;;;;;;;;;;;;;;8.00;68.05;100603.27;1664618;85;20173;-72
2021/11/09 00:52:55;;;;;;;;;;;;;;;8.01;68.08;100606.33;1695985;85;20212;-68
2021/11/09 00:55:24;;;;;;;;;;;;;;;8.02;68.14;100609.39;1664751;86;20182;-68
2021/11/09 00:57:53;;;;;;;;;;;;;;;8.02;68.27;100612.97;1695874;85;20184;-71
2021/11/09 01:00:26;;;;;;;;;;;;;;;8.03;68.44;100613.83;1662463;86;20274;-67
2021/11/09 01:02:55;;;;;;;;;;;;;;;8.03;68.80;100626.11;1664925;85;20229;-69
2021/11/09 01:05:25;;;;;;;;;;;;;;;8.02;69.35;100617.07;1695954;85;20652;-68
2021/11/09 01:07:57;;;;;;;;;;;;;;;8.01;69.34;100618.61;1664888;86;20182;-67
2021/11/09 01:10:28;;;;;;;;;;;;;;;7.96;69.36;100616.41;1693398;85;20459;-68
2021/11/09 01:12:57;;;;;;;;;;;;;;;7.92;69.25;100615.05;1664790;86;20163;-68
2021/11/09 01:15:27;;;;;;;;;;;;;;;7.91;68.97;100622.91;1695736;85;20153;-69
2021/11/09 01:17:57;;;;;;;;;;;;;;;7.87;68.89;100626.50;1664749;86;20175;-68
2021/11/09 01:20:27;;;;;;;;;;;;;;;7.81;68.61;100621.73;1693499;85;20178;-75
2021/11/09 01:22:56;;;;;;;;;;;;;;;7.77;68.62;100620.86;1664770;86;20158;-68
2021/11/09 01:25:27;;;;;;;;;;;;;;;7.74;68.82;100623.42;1695783;85;20199;-68
2021/11/09 01:27:56;;;;;;;;;;;;;;;7.74;68.97;100633.48;1579637;90;20213;-68
2021/11/09 01:30:25;;;;;;;;;;;;;;;7.69;68.88;100632.64;1564196;92;20645;-67
2021/11/09 01:32:56;;;;;;;;;;;;;;;7.68;68.93;100638.27;1578069;91;20287;-68
2021/11/09 01:35:24;;;;;;;;;;;;;;;7.67;68.82;100643.39;1589411;90;20256;-68
2021/11/09 01:37:53;;;;;;;;;;;;;;;7.66;68.79;100654.81;1569061;90;20159;-69
2021/11/09 01:40:24;;;;;;;;;;;;;;;7.61;68.81;100653.11;1600587;88;20557;-69
2021/11/09 01:42:53;;;;;;;;;;;;;;;7.60;69.07;100657.71;1584147;91;20243;-67
2021/11/09 01:45:21;;;;;;;;;;;;;;;7.61;69.15;100662.66;1600407;86;20159;-67
2021/11/09 01:47:51;;;;;;;;;;;;;;;7.61;69.24;100659.93;1664507;86;20550;-67
2021/11/09 01:50:24;;;;;;;;;;;;;;;7.61;69.17;100664.02;1688086;85;20299;-67
2021/11/09 01:52:52;;;;;;;;;;;;;;;7.57;69.13;100659.42;1692305;85;20157;-69
2021/11/09 01:55:21;;;;;;;;;;;;;;;7.56;69.05;100665.05;1692296;85;20231;-68
2021/11/09 01:57:50;;;;;;;;;;;;;;;7.56;69.07;100657.72;1692447;85;20466;-68
2021/11/09 02:00:22;;;;;;;;;;;;;;;7.55;69.07;100668.80;1690413;85;20156;-67
2021/11/09 02:02:51;;;;;;;;;;;;;;;7.54;69.10;100669.81;1692260;85;20187;-67
2021/11/09 02:05:20;;;;;;;;;;;;;;;7.53;68.99;100670.84;1692388;85;20253;-69
2021/11/09 02:07:51;;;;;;;;;;;;;;;7.50;69.06;100672.04;1692660;85;20144;-68
2021/11/09 02:10:24;;;;;;;;;;;;;;;7.49;69.12;100674.94;1689778;85;20196;-68
2021/11/09 02:12:54;;;;;;;;;;;;;;;7.48;69.27;100675.95;1692362;85;20211;-69
2021/11/09 02:15:23;;;;;;;;;;;;;;;7.48;69.36;100690.95;1692558;85;20176;-67
2021/11/09 02:17:52;;;;;;;;;;;;;;;7.49;69.37;100685.84;1692356;85;20184;-69
2021/11/09 02:20:22;;;;;;;;;;;;;;;7.47;69.50;100682.43;1690106;85;20520;-68
2021/11/09 02:22:51;;;;;;;;;;;;;;;7.43;69.56;100684.65;1664519;86;20194;-68
2021/11/09 02:25:21;;;;;;;;;;;;;;;7.45;69.57;100688.05;1664547;86;20201;-66
2021/11/09 02:27:50;;;;;;;;;;;;;;;7.45;69.54;100687.20;1664486;86;20534;-69
2021/11/09 02:30:23;;;;;;;;;;;;;;;7.44;69.63;100696.41;1664576;86;20465;-71
2021/11/09 02:32:53;;;;;;;;;;;;;;;7.44;69.62;100698.63;1685801;85;20510;-68
2021/11/09 02:35:22;;;;;;;;;;;;;;;7.46;69.54;100695.72;1692488;84;20181;-68
2021/11/09 02:37:51;;;;;;;;;;;;;;;7.48;69.38;100704.59;1692270;85;20252;-67
2021/11/09 02:40:20;;;;;;;;;;;;;;;7.46;68.89;100703.91;1687335;84;20161;-67
2021/11/09 02:42:51;;;;;;;;;;;;;;;7.36;68.47;100714.97;1675621;86;20185;-68
2021/11/09 02:45:27;;;;;;;;;;;;;;;7.29;68.28;100712.08;1677771;86;20220;-68
2021/11/09 02:50:38;;;;;;;;;;;;;;;7.16;67.73;100722.62;1655787;86;20578;-67
2021/11/09 02:53:09;;;;;;;;;;;;;;;7.07;67.77;100726.83;1658347;85;20178;-67
2021/11/09 02:55:43;;;;;;;;;;;;;;;7.04;67.91;100728.02;1654736;87;20477;-67
2021/11/09 02:58:40;;;;;;;;;;;;;;;6.99;68.04;100727.66;1650549;87;20225;-68
2021/11/09 03:04:34;;;;;;;;;;;;;;;6.92;68.26;100739.73;1654472;87;20168;-68
2021/11/09 03:09:03;;;;;;;;;;;;;;;6.83;68.31;100735.27;1650508;87;20208;-68
2021/11/09 03:11:28;;;;;;;;;;;;;;;6.81;67.99;100733.73;1655677;86;20184;-68
2021/11/09 03:13:57;;;;;;;;;;;;;;;6.77;67.78;100735.09;1654768;87;20232;-69
2021/11/09 03:16:30;;;;;;;;;;;;;;;6.73;67.74;100746.81;1650457;87;20577;-68
2021/11/09 03:46:35;;;;;;;;;;;;;;;6.27;67.78;100763.92;1692156;85;20154;-67
2021/11/09 03:49:05;;;;;;;;;;;;;;;6.21;68.07;100771.36;1693935;85;20492;-68
2021/11/09 03:51:34;;;;;;;;;;;;;;;6.15;68.29;100773.36;1694357;85;20170;-66
2021/11/09 03:54:09;;;;;;;;;;;;;;;6.11;68.50;100777.42;1694249;85;20217;-70
2021/11/09 03:56:58;;;;;;;;;;;;;;;6.04;68.80;100780.43;1693628;85;20243;-67
2021/11/09 03:59:26;;;;;;;;;;;;;;;5.99;69.04;100785.50;1691216;85;20452;-65
2021/11/09 04:07:10;;;;;;;;;;;;;;;5.91;69.69;100786.80;1694112;85;20229;-68
2021/11/09 04:40:46;;;;;;;;;;;;;;;5.41;71.50;100829.44;1668033;85;20260;-70
2021/11/09 04:48:19;;;;;;;;;;;;;;;5.30;70.48;100837.80;1637184;87;20158;-69
2021/11/09 04:53:49;;;;;;;;;;;;;;;5.10;70.66;100842.47;1637218;88;20453;-67
2021/11/09 05:02:17;;;;;;;;;;;;;;;5.01;70.68;100850.17;1650780;87;20272;-69
2021/11/09 05:09:58;;;;;;;;;;;;;;;4.88;70.82;100857.80;1651542;86;20491;-68
2021/11/09 05:12:24;;;;;;;;;;;;;;;4.87;70.89;100873.24;1636901;86;20195;-68
2021/11/09 05:14:53;;;;;;;;;;;;;;;4.88;70.84;100870.87;1636874;88;20223;-69
2021/11/09 05:17:22;;;;;;;;;;;;;;;4.87;70.35;100878.67;1677920;86;20515;-67
2021/11/09 05:19:51;;;;;;;;;;;;;;;4.84;70.19;100883.05;1678125;86;20565;-69
2021/11/09 05:22:19;;;;;;;;;;;;;;;4.80;70.30;100893.84;1678005;86;20462;-68
2021/11/09 05:24:48;;;;;;;;;;;;;;;4.81;70.25;100903.70;1677856;86;20735;-68
2021/11/09 05:27:17;;;;;;;;;;;;;;;4.81;70.02;100902.84;1675463;86;20457;-69
2021/11/09 05:29:46;;;;;;;;;;;;;;;4.82;69.95;100903.20;1677933;86;20494;-66
2021/11/09 05:32:15;;;;;;;;;;;;;;;4.80;69.95;100907.92;1677800;85;20224;-68
2021/11/09 05:34:43;;;;;;;;;;;;;;;4.77;70.14;100912.64;1678070;86;20211;-67
2021/11/09 05:37:18;;;;;;;;;;;;;;;4.78;70.27;100913.00;1675992;85;20167;-67
2021/11/09 05:39:48;;;;;;;;;;;;;;;4.80;70.17;100920.14;1677839;86;20175;-68
2021/11/09 05:42:15;;;;;;;;;;;;;;;4.80;69.95;100933.22;1689664;83;20570;-68
2021/11/09 05:44:44;;;;;;;;;;;;;;;4.77;69.74;100936.22;1694261;85;20538;-68
2021/11/09 05:47:13;;;;;;;;;;;;;;;4.75;69.07;100926.87;1691832;85;20448;-67
2021/11/09 05:49:41;;;;;;;;;;;;;;;4.75;68.36;100934.16;1693952;85;20264;-70
2021/11/09 05:52:12;;;;;;;;;;;;;;;4.71;68.13;100939.52;1694209;85;20162;-70
2021/11/09 05:54:41;;;;;;;;;;;;;;;4.68;67.96;100946.10;1693989;85;20218;-68
2021/11/09 05:57:10;;;;;;;;;;;;;;;4.67;67.98;100941.67;1692283;85;20488;-71
2021/11/09 05:59:40;;;;;;;;;;;;;;;4.70;67.98;100945.45;1694296;85;20268;-68
2021/11/09 06:02:09;;;;;;;;;;;;;;;4.73;67.96;100960.09;1694305;85;20170;-68
2021/11/09 06:04:38;;;;;;;;;;;;;;;4.73;67.85;100958.73;1694199;85;20480;-70
2021/11/09 06:07:06;;;;;;;;;;;;;;;4.75;67.76;100964.88;1677222;85;20522;-70
2021/11/09 06:09:37;;;;;;;;;;;;;;;4.81;67.56;100966.14;1666303;86;20242;-69
2021/11/09 06:12:06;;;;;;;;;;;;;;;4.86;67.26;100968.42;1666188;86;20470;-68
2021/11/09 06:14:36;;;;;;;;;;;;;;;4.87;66.89;100979.13;1666187;86;20200;-69
2021/11/09 06:17:05;;;;;;;;;;;;;;;4.84;66.63;100982.64;1677299;85;20225;-72
2021/11/09 06:19:34;;;;;;;;;;;;;;;4.84;66.49;100989.43;1693126;85;20166;-70
2021/11/09 06:22:03;;;;;;;;;;;;;;;4.85;66.25;100986.57;1694230;85;20473;-68
2021/11/09 06:24:32;;;;;;;;;;;;;;;4.85;66.17;101000.64;1694116;85;20238;-69
2021/11/09 06:27:00;;;;;;;;;;;;;;;4.81;66.07;101006.02;1692277;85;20241;-72
2021/11/09 06:29:29;;;;;;;;;;;;;;;4.78;66.23;101018.02;1694138;85;20554;-68
2021/11/09 06:31:59;;;;;;;;;;;;;;;4.76;66.19;101018.66;1694264;85;20227;-70
2021/11/09 06:34:28;;;;;;;;;;;;;;;4.73;66.13;101013.52;1694062;85;20210;-69
2021/11/09 06:36:57;;;;;;;;;;;;;;;4.70;65.78;101023.31;1694073;85;20185;-69
2021/11/09 06:39:27;;;;;;;;;;;;;;;4.65;65.96;101017.47;1665047;85;20590;-68
2021/11/09 06:41:57;;;;;;;;;;;;;;;4.67;66.11;101029.03;1633105;87;20196;-68
2021/11/09 06:44:26;;;;;;;;;;;;;;;4.68;65.67;101021.25;1587282;90;20259;-68
2021/11/09 06:46:55;;;;;;;;;;;;;;;4.68;65.56;101030.75;1588569;90;20188;-68
2021/11/09 06:49:24;;;;;;;;;;;;;;;4.61;65.57;101026.39;1606912;89;20520;-69
2021/11/09 06:51:52;;;;;;;;;;;;;;;4.60;66.07;101034.18;1627624;88;20465;-70
2021/11/09 06:54:21;;;;;;;;;;;;;;;4.63;66.00;101037.97;1627259;88;20203;-68
2021/11/09 06:56:49;;;;;;;;;;;;;;;4.66;65.02;101036.82;1626861;88;20486;-68
2021/11/09 06:59:21;;;;;;;;;;;;;;;4.66;64.33;101039.03;1610560;87;20157;-69
2021/11/09 07:01:49;;;;;;;;;;;;;;;4.64;64.07;101036.11;1654564;87;20202;-70
2021/11/09 07:04:18;;;;;;;;;;;;;;;4.63;64.12;101048.83;1654526;87;20181;-69
2021/11/09 07:06:46;;;;;;;;;;;;;;;4.66;63.97;101044.47;1654766;87;20528;-69
2021/11/09 07:09:16;;;;;;;;;;;;;;;4.69;63.29;101050.96;1676947;85;20198;-69
2021/11/09 07:11:46;;;;;;;;;;;;;;;4.70;62.92;101054.03;1681966;85;20151;-70
2021/11/09 07:14:15;;;;;;;;;;;;;;;4.76;63.07;101074.31;1682100;85;20155;-70
2021/11/09 07:16:45;;;;;;;;;;;;;;;4.81;62.95;101060.31;1681973;85;20537;-69
2021/11/09 07:19:15;;;;;;;;;;;;;;;4.81;63.04;101067.95;1679530;85;20469;-70
2021/11/09 07:21:45;;;;;;;;;;;;;;;4.88;63.09;101068.23;1682219;85;20206;-69
2021/11/09 07:24:14;;;;;;;;;;;;;;;4.91;62.69;101074.73;1682037;85;20538;-70
2021/11/09 07:26:46;;;;;;;;;;;;;;;4.88;62.46;101078.59;1660186;85;20662;-69
2021/11/09 07:29:14;;;;;;;;;;;;;;;4.87;62.35;101089.59;1654741;87;20200;-69
2021/11/09 07:31:43;;;;;;;;;;;;;;;4.83;62.43;101094.45;1654671;87;20462;-69
2021/11/09 07:34:12;;;;;;;;;;;;;;;4.84;62.36;101095.31;1654524;87;20212;-68
2021/11/09 07:36:40;;;;;;;;;;;;;;;4.83;62.41;101104.46;1670068;85;20269;-70
2021/11/09 07:39:09;;;;;;;;;;;;;;;4.86;62.62;101104.17;1682003;85;20477;-68
2021/11/09 07:41:39;;;;;;;;;;;;;;;4.90;61.76;101108.32;1680317;85;20437;-70
2021/11/09 07:44:08;;;;;;;;;;;;;;;4.89;61.90;101104.75;1674840;86;20191;-69
2021/11/09 07:46:38;;;;;;;;;;;;;;;4.92;61.95;101109.89;1672451;86;20234;-69
2021/11/09 07:49:08;;;;;;;;;;;;;;;4.93;61.55;101103.95;1675034;86;20215;-70
2021/11/09 07:51:37;;;;;;;;;;;;;;;4.91;61.54;101112.75;1675067;85;20179;-70
2021/11/09 07:54:07;;;;;;;;;;;;;;;4.98;61.28;101110.67;1675226;86;20227;-69
2021/11/09 07:56:37;;;;;;;;;;;;;;;5.20;61.33;101112.25;1651391;86;20507;-69
2021/11/09 08:01:43;;;;;;;;;;;;;;;5.84;59.54;101120.99;1647675;87;20166;-71
2021/11/09 08:04:16;;;;;;;;;;;;;;;5.96;58.50;101128.02;1647778;87;20190;-70
2021/11/09 08:09:30;;;;;;;;;;;;;;;5.97;57.45;101136.53;1647638;87;20268;-68
2021/11/09 08:12:02;;;;;;;;;;;;;;;5.91;56.98;101138.99;1647654;87;20230;-68
2021/11/09 08:14:30;;;;;;;;;;;;;;;5.75;56.90;101151.80;1647586;87;20169;-70
2021/11/09 08:17:01;;;;;;;;;;;;;;;5.63;57.51;101151.63;1592523;89;20222;-70
2021/11/09 08:19:31;;;;;;;;;;;;;;;5.60;57.85;101161.44;1577709;91;20207;-71
2021/11/09 08:22:00;;;;;;;;;;;;;;;5.59;57.89;101171.45;1627642;87;20175;-70
2021/11/09 08:24:29;;;;;;;;;;;;;;;5.60;57.82;101170.95;1627495;88;20275;-67
2021/11/09 08:26:58;;;;;;;;;;;;;;;5.58;57.63;101175.17;1627599;88;20681;-68
2021/11/09 08:29:27;;;;;;;;;;;;;;;5.53;57.50;101171.17;1617995;89;20159;-69
2021/11/09 08:31:56;;;;;;;;;;;;;;;5.45;57.43;101170.55;1602871;90;20193;-69
2021/11/09 08:34:28;;;;;;;;;;;;;;;5.34;57.90;101177.50;1645318;85;20154;-68
2021/11/09 08:36:56;;;;;;;;;;;;;;;5.26;58.19;101185.52;1694124;85;20518;-70
2021/11/09 08:39:33;;;;;;;;;;;;;;;5.13;58.36;101175.42;1659217;85;20160;-69
2021/11/09 08:44:29;;;;;;;;;;;;;;;4.98;58.58;101181.78;1681432;85;20188;-70
2021/11/09 08:47:00;;;;;;;;;;;;;;;4.96;58.78;101193.28;1681409;85;20279;-69
2021/11/09 08:49:30;;;;;;;;;;;;;;;4.91;58.12;101189.64;1679675;85;20195;-69
2021/11/09 08:52:02;;;;;;;;;;;;;;;4.92;58.30;101195.42;1681331;85;20302;-71
2021/11/09 08:54:33;;;;;;;;;;;;;;;4.98;58.06;101196.22;1672620;84;20195;-71
2021/11/09 08:57:20;;;;;;;;;;;;;;;5.01;58.07;101199.14;1659233;85;20215;-70
2021/11/09 09:05:31;;;;;;;;;;;;;;;5.03;57.78;101212.08;1551990;92;20506;-63
2021/11/09 09:07:59;;;;;;;;;;;;;;;4.98;57.71;101216.59;1551951;92;20220;-64
2021/11/09 09:10:29;;;;;;;;;;;;;;;4.95;58.31;101224.16;1563899;90;20296;-65
2021/11/09 09:12:59;;;;;;;;;;;;;;;4.94;61.60;101233.30;1577782;91;20195;-64
2021/11/09 09:15:29;;;;;;;;;;;;;;;4.99;59.60;101229.66;1577780;90;20192;-64
2021/11/09 09:18:08;;;;;;;;;;;;;;;5.05;58.76;101226.38;1551792;92;20236;-63
2021/11/09 09:20:48;;;;;;;;;;;;;;;5.09;57.67;101231.39;1529684;92;20492;-65
2021/11/09 09:23:22;;;;;;;;;;;;;;;5.09;56.41;101236.82;1586551;88;20472;-64
2021/11/09 09:26:09;;;;;;;;;;;;;;;5.07;56.18;101246.11;1638369;85;20194;-65
2021/11/09 09:28:59;;;;;;;;;;;;;;;4.97;55.48;101247.45;1639208;86;20461;-64
2021/11/09 09:55:59;;;;;;;;;;;;;;;5.23;52.33;101269.53;1654773;86;20174;-63
2021/11/09 09:58:26;;;;;;;;;;;;;;;5.18;51.92;101277.22;1588471;89;20535;-64
2021/11/09 10:00:56;;;;;;;;;;;;;;;5.12;51.99;101276.42;1580149;90;20175;-62
2021/11/09 10:03:38;;;;;;;;;;;;;;;5.09;51.99;101280.78;1588715;90;20229;-62
2021/11/09 10:06:08;;;;;;;;;;;;;;;5.02;51.96;101280.98;1586209;90;20269;-65
2021/11/09 10:08:40;;;;;;;;;;;;;;;5.01;51.92;101275.20;1587388;90;20230;-63
2021/11/09 10:11:29;;;;;;;;;;;;;;;4.98;52.25;101283.63;1588495;89;20198;-64
2021/11/09 10:13:58;;;;;;;;;;;;;;;4.99;51.93;101288.05;1612370;89;20173;-64
2021/11/09 10:16:29;;;;;;;;;;;;;;;4.98;51.71;101290.41;1649383;85;20189;-64
2021/11/09 10:18:58;;;;;;;;;;;;;;;4.97;51.67;101298.20;1576847;91;20583;-63
2021/11/09 10:21:36;;;;;;;;;;;;;;;4.94;51.63;101287.62;1576641;91;20539;-64
2021/11/09 10:24:27;;;;;;;;;;;;;;;4.93;52.07;101286.76;1575824;91;20548;-63
2021/11/09 10:27:01;;;;;;;;;;;;;;;4.84;52.15;101281.30;1576789;91;20193;-63
2021/11/09 10:29:39;;;;;;;;;;;;;;;4.82;52.16;101284.66;1553843;91;20219;-63
2021/11/09 10:32:16;;;;;;;;;;;;;;;4.91;51.83;101291.97;1571080;91;20221;-64
2021/11/09 10:34:46;;;;;;;;;;;;;;;4.99;51.01;101294.84;1576754;91;20524;-64
2021/11/09 10:37:20;;;;;;;;;;;;;;;5.02;50.21;101296.78;1576655;91;20210;-65
2021/11/09 10:39:52;;;;;;;;;;;;;;;5.02;50.72;101289.98;1577064;91;20201;-66
2021/11/09 10:42:24;;;;;;;;;;;;;;;5.03;50.09;101299.86;1555888;91;20241;-64
2021/11/09 10:44:57;;;;;;;;;;;;;;;5.02;50.00;101293.20;1534742;93;20608;-63
2021/11/09 10:47:30;;;;;;;;;;;;;;;4.99;50.23;101286.70;1534822;93;20204;-64
2021/11/09 10:50:03;;;;;;;;;;;;;;;4.99;50.42;101298.42;1591528;87;20495;-64
2021/11/09 10:52:34;;;;;;;;;;;;;;;5.01;50.37;101301.00;1662460;86;20516;-65
2021/11/09 10:55:20;;;;;;;;;;;;;;;5.03;50.55;101301.72;1658200;85;20185;-65
2021/11/09 11:06:23;;;;;;;;;;;;;;;5.19;50.82;101314.25;1728390;83;20488;-64
2021/11/09 11:09:11;;;;;;;;;;;;;;;5.25;50.92;101311.50;1728224;83;20159;-64
2021/11/09 11:11:51;;;;;;;;;;;;;;;5.33;50.01;101312.52;1695467;84;20194;-63
2021/11/09 11:14:26;;;;;;;;;;;;;;;5.37;49.45;101307.66;1699015;84;20170;-64
2021/11/09 11:17:09;;;;;;;;;;;;;;;5.38;48.70;101315.66;1698943;84;20222;-65
2021/11/09 11:19:43;;;;;;;;;;;;;;;5.38;48.54;101312.95;1698842;84;20269;-65
2021/11/09 11:22:16;;;;;;;;;;;;;;;5.40;48.68;101321.81;1726467;83;20503;-64
2021/11/09 11:24:46;;;;;;;;;;;;;;;5.43;48.36;101336.13;1727929;83;20218;-66
2021/11/09 11:27:15;;;;;;;;;;;;;;;5.39;48.36;101322.81;1728122;83;20477;-63
2021/11/09 11:29:44;;;;;;;;;;;;;;;5.40;48.82;101330.47;1711578;83;20217;-65
2021/11/09 11:32:16;;;;;;;;;;;;;;;5.41;48.58;101341.70;1698986;84;20504;-64
2021/11/09 11:34:47;;;;;;;;;;;;;;;5.39;48.20;101336.41;1699239;84;20166;-65
2021/11/09 11:37:18;;;;;;;;;;;;;;;5.38;48.33;101352.36;1699041;84;20217;-65
2021/11/09 11:39:56;;;;;;;;;;;;;;;5.35;48.33;101339.55;1709838;83;20148;-64
2021/11/09 11:42:24;;;;;;;;;;;;;;;5.33;48.40;101340.19;1727849;83;20211;-63
2021/11/09 11:44:57;;;;;;;;;;;;;;;5.32;48.70;101337.97;1727818;83;20226;-65
2021/11/09 11:47:26;;;;;;;;;;;;;;;5.34;48.53;101349.56;1727973;83;20152;-64
2021/11/09 11:49:59;;;;;;;;;;;;;;;5.36;48.32;101347.56;1725838;83;20484;-65
2021/11/09 11:52:33;;;;;;;;;;;;;;;5.35;48.50;101356.72;1727755;83;20458;-64
2021/11/09 11:55:24;;;;;;;;;;;;;;;5.36;48.61;101349.42;1706151;83;20181;-66
2021/11/09 11:58:10;;;;;;;;;;;;;;;5.35;48.23;101360.79;1665353;84;20221;-65
2021/11/09 12:00:56;;;;;;;;;;;;;;;5.31;48.06;101370.72;1701438;83;20257;-65
2021/11/09 12:03:27;;;;;;;;;;;;;;;5.22;47.97;101364.27;1712144;83;20583;-65
2021/11/09 12:05:59;;;;;;;;;;;;;;;5.19;48.51;101364.52;1613411;88;20572;-65
2021/11/09 12:08:36;;;;;;;;;;;;;;;5.14;48.42;101373.58;1631955;88;20194;-66
2021/11/09 12:11:06;;;;;;;;;;;;;;;5.14;49.34;101379.02;1639208;86;20543;-65
2021/11/09 12:13:55;;;;;;;;;;;;;;;5.16;48.74;101377.02;1638260;88;20171;-65
2021/11/09 12:16:50;;;;;;;;;;;;;;;5.17;48.39;101376.52;1638323;88;20205;-64
2021/11/09 12:19:40;;;;;;;;;;;;;;;5.20;48.48;101383.03;1562479;92;20595;-65
2021/11/09 12:22:12;;;;;;;;;;;;;;;5.19;48.23;101398.48;1538223;93;20197;-66
2021/11/09 12:24:57;;;;;;;;;;;;;;;5.19;48.80;101401.19;1589721;89;20210;-64
2021/11/09 12:27:31;;;;;;;;;;;;;;;5.19;48.57;101396.26;1592914;90;20473;-63
2021/11/09 12:30:03;;;;;;;;;;;;;;;5.16;48.01;101406.91;1617759;88;20187;-65
2021/11/09 12:32:35;;;;;;;;;;;;;;;5.12;47.76;101411.39;1611390;89;20236;-65
2021/11/09 12:35:07;;;;;;;;;;;;;;;5.06;47.70;101414.16;1605737;88;20194;-64
2021/11/09 12:37:42;;;;;;;;;;;;;;;4.99;47.50;101412.98;1578470;91;20159;-66
2021/11/09 12:40:48;;;;;;;;;;;;;;;4.95;47.53;101423.77;1591684;89;20171;-65
2021/11/09 12:43:31;;;;;;;;;;;;;;;4.92;47.10;101428.11;1597505;88;20187;-63
2021/11/09 12:46:10;;;;;;;;;;;;;;;4.83;47.93;101432.50;1650131;87;20157;-62
2021/11/09 12:48:53;;;;;;;;;;;;;;;4.82;47.90;101432.14;1667678;85;20212;-63
2021/11/09 12:51:23;;;;;;;;;;;;;;;4.78;47.62;101432.91;1665653;86;20487;-63
2021/11/09 12:53:53;;;;;;;;;;;;;;;4.78;47.76;101439.70;1665819;86;20164;-63
2021/11/09 12:56:34;;;;;;;;;;;;;;;4.80;47.92;101444.13;1648032;87;20166;-66
2021/11/09 12:59:12;;;;;;;;;;;;;;;4.80;47.49;101444.98;1655682;86;20244;-63
2021/11/09 13:01:48;;;;;;;;;;;;;;;4.81;47.70;101447.20;1675536;86;20443;-64
2021/11/09 13:09:50;;;;;;;;;;;;;;;4.76;48.33;101475.62;1660921;86;20163;-65
2021/11/09 13:12:29;;;;;;;;;;;;;;;4.74;48.24;101476.75;1677365;86;20282;-62
2021/11/09 13:15:07;;;;;;;;;;;;;;;4.70;48.52;101475.30;1692123;85;20209;-59
2021/11/09 13:17:43;;;;;;;;;;;;;;;4.67;48.57;101483.70;1586175;90;20215;-61
2021/11/09 13:20:22;;;;;;;;;;;;;;;4.64;48.77;101479.41;1561977;92;20504;-64
2021/11/09 13:22:58;;;;;;;;;;;;;;;4.65;49.24;101491.98;1610681;88;20321;-63
2021/11/09 13:25:40;;;;;;;;;;;;;;;4.69;49.66;101488.51;1612117;89;20165;-62
2021/11/09 13:28:17;;;;;;;;;;;;;;;4.72;49.42;101501.32;1612692;88;20165;-61
2021/11/09 13:31:01;;;;;;;;;;;;;;;4.76;50.24;101503.27;1638199;88;20481;-64
2021/11/09 13:33:32;;;;;;;;;;;;;;;4.74;49.18;101521.55;1638150;88;20179;-63
2021/11/09 13:36:01;;;;;;;;;;;;;;;4.69;49.45;101521.09;1624252;88;20161;-62
2021/11/09 13:38:39;;;;;;;;;;;;;;;4.70;51.28;101525.02;1619681;88;20209;-59
2021/11/09 13:41:15;;;;;;;;;;;;;;;4.74;51.40;101536.48;1640096;83;20260;-63
2021/11/09 13:43:51;;;;;;;;;;;;;;;4.76;50.92;101552.14;1696296;83;20197;-64
2021/11/09 13:46:26;;;;;;;;;;;;;;;4.73;49.76;101545.63;1692191;83;20225;-65
2021/11/09 13:49:00;;;;;;;;;;;;;;;4.73;49.88;101556.48;1691411;85;20581;-63
2021/11/09 13:51:32;;;;;;;;;;;;;;;4.71;51.30;101559.83;1715057;83;20184;-65
2021/11/09 13:54:04;;;;;;;;;;;;;;;4.66;49.47;101558.86;1720799;83;20264;-64
2021/11/09 13:56:32;;;;;;;;;;;;;;;4.60;49.44;101569.37;1720660;83;20232;-64
2021/11/09 13:59:08;;;;;;;;;;;;;;;4.56;49.40;101565.20;1720513;83;20243;-65
2021/11/09 14:01:58;;;;;;;;;;;;;;;4.49;49.32;101572.97;1718310;83;20160;-65
2021/11/09 14:07:30;;;;;;;;;;;;;;;4.32;49.73;101585.25;1720479;83;20499;-65
2021/11/09 14:10:06;;;;;;;;;;;;;;;4.34;51.10;101582.41;1707477;83;20190;-67
2021/11/09 14:15:15;;;;;;;;;;;;;;;4.38;53.26;101602.87;1665986;86;20553;-64
2021/11/09 14:17:41;;;;;;;;;;;;;;;4.38;51.45;101597.44;1647877;87;20222;-65
2021/11/09 14:20:16;;;;;;;;;;;;;;;4.34;50.92;101605.47;1677486;86;20286;-63
2021/11/09 14:22:48;;;;;;;;;;;;;;;4.29;50.79;101614.48;1705298;83;20196;-65
2021/11/09 14:25:34;;;;;;;;;;;;;;;4.22;50.92;101619.56;1720566;83;20160;-64
2021/11/09 14:28:07;;;;;;;;;;;;;;;4.20;50.67;101624.25;1707414;83;20214;-65
2021/11/09 14:30:36;;;;;;;;;;;;;;;4.17;51.92;101626.36;1716248;83;20247;-64
2021/11/09 14:33:15;;;;;;;;;;;;;;;4.14;51.13;101625.62;1702285;83;20183;-64
2021/11/09 14:35:39;;;;;;;;;;;;;;;4.10;51.18;101642.27;1665427;86;20156;-65
2021/11/09 14:38:10;;;;;;;;;;;;;;;4.07;51.27;101640.67;1665736;85;20256;-66
2021/11/09 14:40:50;;;;;;;;;;;;;;;4.07;51.32;101644.73;1677995;84;20155;-65
2021/11/09 14:43:24;;;;;;;;;;;;;;;4.04;51.26;101644.99;1704999;84;20157;-65
2021/11/09 14:46:04;;;;;;;;;;;;;;;3.99;52.12;101656.70;1705583;84;20181;-65
2021/11/09 14:48:29;;;;;;;;;;;;;;;3.96;52.08;101663.73;1704340;84;20169;-66
2021/11/09 14:53:36;;;;;;;;;;;;;;;3.92;51.98;101676.30;1698857;84;20185;-63
2021/11/09 14:56:07;;;;;;;;;;;;;;;3.92;51.89;101690.73;1686080;84;20187;-64
2021/11/09 14:58:43;;;;;;;;;;;;;;;3.86;52.04;101683.05;1638490;86;20222;-63
2021/11/09 15:01:35;;;;;;;;;;;;;;;3.83;52.26;101692.30;1689423;84;20200;-63
2021/11/09 15:04:17;;;;;;;;;;;;;;;3.81;52.23;101692.91;1690194;84;20184;-63
2021/11/09 15:07:06;;;;;;;;;;;;;;;3.76;52.30;101702.39;1709430;83;20473;-64
2021/11/09 15:10:00;;;;;;;;;;;;;;;3.72;52.60;101701.78;1704689;83;20186;-64
2021/11/09 15:26:29;;;;;;;;;;;;;;;3.55;53.44;101728.48;1625099;88;20187;-65
2021/11/09 15:29:05;;;;;;;;;;;;;;;3.55;53.29;101743.39;1625532;88;20522;-66
2021/11/09 15:31:35;;;;;;;;;;;;;;;3.53;53.07;101737.23;1624250;88;20220;-65
2021/11/09 15:36:48;;;;;;;;;;;;;;;3.45;53.02;101748.17;1706657;83;20518;-66
2021/11/09 15:39:15;;;;;;;;;;;;;;;3.45;52.78;101764.92;1708320;84;20284;-64
2021/11/09 15:41:45;;;;;;;;;;;;;;;3.42;52.91;101763.30;1708187;84;20218;-65
2021/11/09 15:44:14;;;;;;;;;;;;;;;3.44;52.86;101770.83;1731076;83;20535;-66
2021/11/09 15:46:44;;;;;;;;;;;;;;;3.42;52.75;101767.38;1725129;83;20242;-65
2021/11/09 15:49:14;;;;;;;;;;;;;;;3.44;53.06;101761.83;1709714;83;20505;-65
2021/11/09 15:51:42;;;;;;;;;;;;;;;3.42;52.89;101770.08;1711928;83;20226;-65
2021/11/09 15:54:12;;;;;;;;;;;;;;;3.42;54.41;101789.05;1714374;83;20200;-65
2021/11/09 15:56:40;;;;;;;;;;;;;;;3.44;52.42;101795.21;1707637;84;20189;-66
2021/11/09 15:59:21;;;;;;;;;;;;;;;3.34;52.20;101794.19;1710173;83;20947;-63
2021/11/09 16:01:59;;;;;;;;;;;;;;;3.26;52.13;101803.39;1708281;84;20157;-64
2021/11/09 16:04:35;;;;;;;;;;;;;;;3.19;52.55;101802.09;1682033;84;20173;-64